McClellan-Palomar, CA

5:03 AM PDT on September 02, 2014 (GMT -0700)
Camp Pendleton Marine Corps Air Station | Change Station
CLOSE
Current Station
Airport
Location: Camp Pendleton,
Elevation: 75 ft
Nearby Weather Stations

Elev 75 ft 33.30 °N, 117.36 °W | Updated 9 minutes ago

Haze
Haze
68 °F
Feels Like 68 °F
N
0
Wind Variable Wind from North

Today
High -- | Low -- °F
--% Chance of Precip.
Yesterday
High -- | Low -- °F
Precip. -- in
6:24 AM 7:12 PM
Waxing Crescent, 51% visible
Pressure 29.85 in
Visibility 5.0 miles
Clouds Overcast 1300 ft
Dew Point 61 °F
Humidity 78%
Rainfall 0.00 in
Snow Depth Not available.
UV 0 out of 12
Pollen 7.80 out of 12
Ozone Good
PM2.5 Good
Flu Activity Not available.
METAR KNFG 021154Z AUTO 00000KT 5SM HZ OVC013 20/16 A2985 RMK AO2 SLP107 T02000161 10200 20183 51003

More Conditions Fewer Conditions

Pressure 29.85 in
Visibility 5.0 miles
Clouds Overcast 1300 ft
Dew Point 61 °F
Humidity 78%
Rainfall 0.00 in
Snow Depth Not available.
UV 0 out of 12
Pollen 7.80 out of 12
Ozone Good
PM2.5 Good
Flu Activity Not available.
METAR KNFG 021154Z AUTO 00000KT 5SM HZ OVC013 20/16 A2985 RMK AO2 SLP107 T02000161 10200 20183 51003

More Conditions Fewer Conditions

10-Day Weather Forecast

Almanac

Astronomy

Sep. 02, 2014 Rise Set
Actual Time 6:24 AM PDT 7:12 PM PDT
Civil Twilight 5:59 AM PDT 7:37 PM PDT
Nautical Twilight 5:29 AM PDT 8:07 PM PDT
Astronomical Twilight 4:58 AM PDT 8:37 PM PDT
Moon 1:51 PM PDT No Moon Set
Length of Visible Light 13h 38m
Length of Day
12h 48m
Tomorrow will be 1m 57s shorter.
Waxing Crescent, 51% of the Moon is Illuminated
Today
Waxing Crescent
Sep 8
Full
Sep 15
Last Quarter
Sep 24
New
Oct 1
First Quarter

Today's Extremes

State Highs State Lows

Community

WunderPhotos

Upload Photos

1,749,622 photos uploaded!

WunderBlogs® & News

By Dr. Jeff Masters
Director of Meteorology, Weather Underground
By Kari Strenfel
Meteorologist, Weather Underground
By Christopher C. Burt
Weather Historian, Weather Underground
September 2, 2014
September 2, 2014
September 2, 2014

Nearby

Air Quality

  Air Quality AQ Index Pollutant
Yesterday Good
PM2.5
Yesterday Good
OZONE
Current Good
PM2.5
Current Good
OZONE
Tuesday Good
PM2.5

Snow Depth

Station Depth Elevation
Leavitt Lake 0 in 9400 ft
Leavitt Meadows 1 in 7200 ft
Summit Meadow 1 in 9122 ft
Monitor Pass 0 in 8350 ft
Blue Lakes 0 in 8000 ft

Earthquake Activity

City Distance Mag. Time & Date
Holtville, California 110 miles 2.5 5:43 PM PDT
2014-09-01
Holtville, California 112 miles 2.5 5:26 PM PDT
2014-09-01
Malibu, California 112 miles 2.5 8:11 AM PDT
2014-08-30
Minimum magnitude displayed is 2.5.

Coastal Water Temperatures

Place Temperature
La Jolla, CA 71.1 °F
San Diego, CA 73.9 °F

Nearby Weather Stations